Time;durP1;ratioP1;P1;durP2;ratioP2;P2;SDS_P1;SDS_P2;PMS_P1;PMS_P2;Temp;Humidity;BMP_temperature;BMP_pressure;BME280_temperature;BME280_humidity;BME280_pressure;Samples;Min_cycle;Max_cycle;Signal;HPM_P1;HPM_P2
2022/09/16 00:05:16;;;;;;;8.13;2.20;;;14.20;13.30;;;;;;4926762;29;20454;-83
2022/09/16 00:08:28;;;;;;;5.80;2.30;;;14.20;99.90;;;;;;4931892;29;20819;-84
2022/09/16 00:14:15;;;;;;;6.30;1.83;;;14.10;99.90;;;;;;4945106;29;20468;-88
2022/09/16 00:22:41;;;;;;;5.43;1.97;;;14.00;1.00;;;;;;4944356;29;20445;-85
2022/09/16 00:29:00;;;;;;;15.43;3.43;;;13.90;99.90;;;;;;4939725;29;20443;-85
2022/09/16 00:31:43;;;;;;;7.27;2.30;;;13.90;99.90;;;;;;4938929;29;20461;-85
2022/09/16 00:34:17;;;;;;;4.93;2.30;;;13.90;99.90;;;;;;4935471;29;20462;-84
2022/09/16 00:37:11;;;;;;;6.63;2.60;;;13.80;1.00;;;;;;4956394;29;20860;-84
2022/09/16 00:40:00;;;;;;;9.00;3.00;;;13.80;1.00;;;;;;4936304;29;20465;-83
2022/09/16 00:42:51;;;;;;;9.23;2.33;;;13.80;1.00;;;;;;4928092;29;20438;-84
2022/09/16 00:45:23;;;;;;;7.17;3.20;;;13.70;1.00;;;;;;4941415;29;20461;-83
2022/09/16 00:48:15;;;;;;;3.63;2.20;;;13.70;1.00;;;;;;4942810;29;20434;-83
2022/09/16 00:54:11;;;;;;;6.70;2.20;;;13.70;1.00;;;;;;4919454;29;20474;-84
2022/09/16 00:56:40;;;;;;;7.47;3.17;;;13.80;1.00;;;;;;4940818;29;20476;-83
2022/09/16 01:03:01;;;;;;;;;;;;;;;;;;;;;
2022/09/16 01:06:08;;;;;;;5.47;2.67;;;13.90;30.60;;;;;;4947349;29;20528;-84
2022/09/16 01:08:56;;;;;;;8.23;2.93;;;14.00;27.20;;;;;;4945260;29;20519;-83
2022/09/16 01:11:39;;;;;;;12.13;3.30;;;14.00;75.30;;;;;;4936170;29;20527;-85
2022/09/16 01:21:40;;;;;;;6.50;4.00;;;14.10;99.90;;;;;;4929667;29;20477;-84
2022/09/16 01:24:47;;;;;;;8.60;2.97;;;14.10;99.90;;;;;;4950892;29;21042;-83
2022/09/16 01:31:44;;;;;;;10.57;3.60;;;14.10;99.90;;;;;;4921111;29;20501;-83
2022/09/16 01:34:54;;;;;;;5.40;3.40;;;14.10;99.90;;;;;;4929442;29;20500;-86
2022/09/16 01:37:29;;;;;;;5.60;3.40;;;14.10;99.90;;;;;;4941074;29;20447;-84
2022/09/16 01:43:48;;;;;;;8.93;3.67;;;14.10;99.90;;;;;;4938365;29;20433;-83
2022/09/16 01:46:34;;;;;;;5.23;3.60;;;14.10;99.90;;;;;;4951066;29;20443;-85
2022/09/16 01:49:52;;;;;;;7.90;3.80;;;14.10;99.90;;;;;;4940300;29;20497;-84
2022/09/16 01:56:01;;;;;;;9.77;3.60;;;14.20;99.90;;;;;;4938031;29;20529;-85
2022/09/16 02:02:28;;;;;;;11.33;3.40;;;14.20;99.90;;;;;;4924973;29;20505;-84
2022/09/16 02:08:45;;;;;;;9.60;3.27;;;14.10;99.90;;;;;;4923800;29;20450;-84
2022/09/16 02:11:17;;;;;;;8.37;2.60;;;14.00;99.90;;;;;;4908616;29;20436;-84
2022/09/16 02:14:32;;;;;;;7.90;2.70;;;14.00;99.90;;;;;;4944666;29;20447;-83
2022/09/16 02:17:32;;;;;;;7.47;2.60;;;14.00;99.90;;;;;;4939403;29;20579;-83
2022/09/16 02:20:13;;;;;;;8.13;2.97;;;13.90;99.90;;;;;;4941157;29;20538;-84
2022/09/16 02:26:09;;;;;;;9.60;2.80;;;13.80;99.90;;;;;;4937676;29;20453;-84
2022/09/16 02:28:42;;;;;;;8.10;2.90;;;13.80;99.90;;;;;;4937566;29;20433;-84
2022/09/16 02:31:12;;;;;;;6.97;2.80;;;13.70;99.90;;;;;;4943757;29;20506;-83
2022/09/16 02:37:27;;;;;;;8.03;2.87;;;13.60;99.90;;;;;;4938668;29;20482;-83
2022/09/16 02:40:49;;;;;;;;;;;;;;;;;;;;;
2022/09/16 02:43:36;;;;;;;10.10;3.80;;;13.60;99.90;;;;;;4931654;29;20458;-83
2022/09/16 02:49:39;;;;;;;6.70;3.80;;;13.50;99.90;;;;;;4937684;29;20836;-83
2022/09/16 02:52:30;;;;;;;9.70;4.20;;;13.50;99.90;;;;;;4946109;29;20456;-84
2022/09/16 02:55:37;;;;;;;12.83;4.40;;;13.50;99.90;;;;;;4943361;29;20491;-84
2022/09/16 02:58:25;;;;;;;10.10;3.90;;;13.50;99.90;;;;;;4937847;29;20949;-86
2022/09/16 03:00:59;;;;;;;8.77;3.27;;;13.50;99.90;;;;;;4927553;29;20437;-85
2022/09/16 03:03:33;;;;;;;8.00;3.93;;;13.50;99.90;;;;;;4937388;29;20441;-83
2022/09/16 03:06:28;;;;;;;7.83;3.60;;;13.50;1.00;;;;;;4947226;29;20457;-84
2022/09/16 03:09:16;;;;;;;3.67;3.27;;;13.50;1.00;;;;;;4939468;29;20476;-86
2022/09/16 03:15:12;;;;;;;7.23;3.50;;;13.50;1.00;;;;;;4933825;29;20498;-85
2022/09/16 03:21:51;;;;;;;5.33;3.07;;;13.50;99.90;;;;;;4943740;29;20496;-85
2022/09/16 03:24:42;;;;;;;9.80;3.80;;;13.50;99.90;;;;;;4931020;29;20458;-84
2022/09/16 03:27:34;;;;;;;8.03;3.33;;;13.50;99.90;;;;;;4947314;29;20429;-85
2022/09/16 03:30:22;;;;;;;7.07;2.90;;;13.50;99.90;;;;;;4961734;29;20464;-87
2022/09/16 03:33:13;;;;;;;12.83;3.37;;;13.40;99.90;;;;;;4952979;28;20440;-85
2022/09/16 03:36:25;;;;;;;8.43;2.63;;;13.40;99.90;;;;;;4942836;29;20563;-83
2022/09/16 03:39:02;;;;;;;15.70;3.90;;;13.30;99.90;;;;;;4948541;29;20485;-85
2022/09/16 03:42:01;;;;;;;14.23;3.20;;;13.30;99.90;;;;;;4946125;29;20788;-85
2022/09/16 03:47:51;;;;;;;4.50;2.23;;;13.20;99.90;;;;;;4938737;29;20429;-85
2022/09/16 03:50:19;;;;;;;10.50;2.93;;;13.10;99.90;;;;;;4953287;29;20444;-84
2022/09/16 03:55:40;;;;;;;8.23;2.73;;;13.00;99.90;;;;;;4941546;29;20543;-84
2022/09/16 03:58:35;;;;;;;11.70;2.83;;;13.00;99.90;;;;;;4945870;29;20451;-84
2022/09/16 04:01:03;;;;;;;8.40;2.60;;;12.90;99.90;;;;;;4940928;29;20446;-85
2022/09/16 04:03:51;;;;;;;4.70;2.60;;;12.90;99.90;;;;;;4947427;29;20437;-85
2022/09/16 04:06:59;;;;;;;5.67;2.50;;;12.90;99.90;;;;;;4955094;28;20434;-85
2022/09/16 04:09:30;;;;;;;10.73;3.00;;;12.90;99.90;;;;;;4935658;29;20442;-83
2022/09/16 04:12:16;;;;;;;6.10;2.70;;;12.80;99.90;;;;;;4944262;29;20446;-85
2022/09/16 04:14:53;;;;;;;8.00;3.20;;;12.80;99.90;;;;;;4942069;29;20465;-84
2022/09/16 04:17:26;;;;;;;5.93;2.50;;;12.80;99.90;;;;;;4951961;29;20470;-85
2022/09/16 04:23:18;;;;;;;6.73;3.40;;;12.80;99.90;;;;;;4947061;29;20520;-85
2022/09/16 04:25:59;;;;;;;4.90;3.10;;;12.90;99.90;;;;;;4950848;29;20533;-85
2022/09/16 04:28:53;;;;;;;5.27;2.43;;;12.90;99.90;;;;;;4943360;29;20437;-85
2022/09/16 04:31:29;;;;;;;5.40;2.40;;;13.00;99.90;;;;;;4963955;28;20442;-85
2022/09/16 04:34:31;;;;;;;7.10;2.13;;;13.00;99.90;;;;;;4944049;29;20485;-86
2022/09/16 04:37:05;;;;;;;5.87;2.43;;;13.10;99.90;;;;;;4946569;29;20501;-85
2022/09/16 04:39:38;;;;;;;5.43;2.57;;;13.10;99.90;;;;;;4943807;29;20543;-85
2022/09/16 04:42:18;;;;;;;4.97;2.57;;;13.10;99.90;;;;;;4946047;29;20452;-84
2022/09/16 04:45:04;;;;;;;6.30;2.57;;;13.20;99.90;;;;;;4945854;29;20466;-84
2022/09/16 04:47:51;;;;;;;4.50;2.60;;;13.20;99.90;;;;;;4947816;29;20441;-84
2022/09/16 04:50:16;;;;;;;8.13;2.10;;;13.20;99.90;;;;;;4948454;29;20440;-85
2022/09/16 04:52:50;;;;;;;7.60;2.70;;;13.20;99.90;;;;;;4945503;29;20430;-84
2022/09/16 04:55:30;;;;;;;7.50;2.73;;;13.20;99.90;;;;;;4935020;29;20213;-84
2022/09/16 04:58:07;;;;;;;4.80;2.27;;;13.20;99.90;;;;;;4945877;29;20463;-84
2022/09/16 05:04:21;;;;;;;;;;;;;;;;;;;;;
2022/09/16 05:07:21;;;;;;;6.50;2.07;;;13.20;99.90;;;;;;4947797;29;20524;-84
2022/09/16 05:09:56;;;;;;;8.63;2.67;;;13.20;99.90;;;;;;4947492;29;20437;-85
2022/09/16 05:12:44;;;;;;;7.13;2.60;;;13.20;99.90;;;;;;4939030;29;20448;-85
2022/09/16 05:15:53;;;;;;;6.47;2.20;;;13.20;85.90;;;;;;4948736;29;20465;-84
2022/09/16 05:21:10;;;;;;;7.23;3.57;;;13.30;24.90;;;;;;4945301;29;20442;-85
2022/09/16 05:23:59;;;;;;;;;;;;;;;;;;;;;
2022/09/16 05:40:15;;;;;;;6.77;2.10;;;13.50;1.00;;;;;;4773368;30;20522;-85
2022/09/16 06:03:53;;;;;;;7.87;2.23;;;13.80;99.90;;;;;;4934482;29;20523;-85
2022/09/16 06:07:16;;;;;;;4.90;1.53;;;13.80;99.90;;;;;;4865814;29;20453;-83
2022/09/16 06:10:13;;;;;;;5.63;1.80;;;13.90;5.80;;;;;;4923578;29;20526;-83
2022/09/16 06:13:22;;;;;;;;;;;;;;;;;;;;;
2022/09/16 06:16:18;;;;;;;6.00;2.33;;;14.10;1.00;;;;;;4931879;29;20531;-83
2022/09/16 06:22:13;;;;;;;3.93;1.33;;;14.40;1.00;;;;;;4915113;29;20503;-84
2022/09/16 06:25:10;;;;;;;4.37;1.70;;;14.60;99.90;;;;;;4908963;29;20471;-84
2022/09/16 06:34:57;;;;;;;4.43;1.50;;;24.40;99.90;;;;;;4860223;29;20456;-84
2022/09/16 06:38:33;;;;;;;7.60;1.93;;;23.90;99.90;;;;;;4845811;29;20441;-84
2022/09/16 06:44:34;;;;;;;4.20;1.53;;;21.00;99.90;;;;;;4869536;29;20446;-84
2022/09/16 06:47:39;;;;;;;7.13;1.63;;;19.50;99.90;;;;;;4883748;29;20448;-84
2022/09/16 06:57:07;;;;;;;;;;;;;;;;;;;;;
2022/09/16 07:03:18;;;;;;;8.23;2.00;;;16.20;1.00;;;;;;4882286;29;20425;-82
2022/09/16 07:16:52;;;;;;;5.70;1.60;;;16.40;33.00;;;;;;1228876;23;20525;-85
2022/09/16 07:23:24;;;;;;;;;;;;;;;;;;;;;
2022/09/16 07:26:57;;;;;;;3.50;1.40;;;17.70;1.00;;;;;;4951978;23;20593;-82
2022/09/16 07:29:55;;;;;;;3.30;1.40;;;17.90;1.00;;;;;;4899018;29;20468;-83
2022/09/16 07:36:18;;;;;;;20.77;1.83;;;18.40;99.90;;;;;;4923341;29;20437;-84
2022/09/16 07:42:16;;;;;;;4.97;1.40;;;18.10;99.90;;;;;;4936049;29;20449;-83
2022/09/16 07:44:51;;;;;;;7.17;2.00;;;17.90;99.90;;;;;;4940694;29;20444;-83
2022/09/16 07:47:57;;;;;;;6.20;2.00;;;17.80;99.90;;;;;;4940233;29;20451;-84
2022/09/16 07:50:55;;;;;;;4.23;1.47;;;18.20;99.90;;;;;;4926033;29;20457;-83
2022/09/16 08:00:32;;;;;;;5.33;1.20;;;20.60;99.90;;;;;;4933136;29;20484;-83
2022/09/16 08:03:44;;;;;;;6.53;1.27;;;20.50;99.90;;;;;;4932580;29;20453;-84
2022/09/16 08:09:36;;;;;;;5.03;1.10;;;20.20;99.90;;;;;;4937155;29;20479;-85
2022/09/16 08:19:14;;;;;;;5.97;1.50;;;21.70;99.90;;;;;;4929471;29;20574;-83
2022/09/16 08:21:52;;;;;;;2.77;1.17;;;21.60;99.90;;;;;;4937186;29;20434;-83
2022/09/16 08:24:52;;;;;;;2.73;1.10;;;23.80;99.90;;;;;;4935410;29;20476;-84
2022/09/16 08:27:26;;;;;;;5.23;0.87;;;27.20;99.90;;;;;;4941239;29;20455;-85
2022/09/16 08:30:32;;;;;;;4.40;1.60;;;26.70;99.90;;;;;;4956031;29;20424;-84
2022/09/16 08:33:24;;;;;;;3.20;1.30;;;26.20;99.90;;;;;;4936697;29;20808;-86
2022/09/16 08:36:16;;;;;;;5.00;1.00;;;25.40;99.90;;;;;;4925547;29;20463;-83
2022/09/16 08:39:00;;;;;;;2.07;0.97;;;25.10;99.90;;;;;;4952190;29;21024;-83
2022/09/16 08:42:13;;;;;;;3.37;1.10;;;24.40;99.90;;;;;;4941167;29;20440;-83
2022/09/16 08:45:32;;;;;;;3.30;1.00;;;24.10;99.90;;;;;;4936406;29;20453;-84
2022/09/16 08:48:10;;;;;;;2.20;0.83;;;25.30;99.90;;;;;;4877734;29;20457;-84
2022/09/16 08:51:08;;;;;;;3.90;1.07;;;25.20;99.90;;;;;;4921092;29;20846;-84
2022/09/16 08:53:44;;;;;;;2.27;1.10;;;24.60;99.90;;;;;;4933819;29;20449;-83
2022/09/16 09:03:25;;;;;;;2.90;1.00;;;22.40;99.90;;;;;;4920520;29;20448;-84
2022/09/16 09:05:59;;;;;;;3.23;1.30;;;22.00;99.90;;;;;;4938238;29;20468;-82
2022/09/16 09:08:49;;;;;;;4.03;1.07;;;21.90;99.90;;;;;;4922667;29;20414;-83
2022/09/16 09:11:31;;;;;;;2.70;1.20;;;21.90;99.90;;;;;;4939564;29;20526;-84
2022/09/16 09:14:26;;;;;;;;;;;;;;;;;;;;;
2022/09/16 09:17:13;;;;;;;3.20;1.10;;;22.80;99.90;;;;;;4933093;29;20557;-84
2022/09/16 09:20:18;;;;;;;3.77;1.07;;;25.70;99.90;;;;;;4930611;29;20520;-83
2022/09/16 09:23:14;;;;;;;2.90;0.80;;;27.00;99.90;;;;;;4937097;29;20457;-83
2022/09/16 09:26:01;;;;;;;4.90;1.30;;;27.10;99.90;;;;;;4930717;29;20469;-83
2022/09/16 09:28:29;;;;;;;2.90;1.00;;;27.00;99.90;;;;;;4921430;29;20445;-87
2022/09/16 09:31:43;;;;;;;3.00;1.10;;;26.70;99.90;;;;;;4954603;28;20442;-83
2022/09/16 09:34:52;;;;;;;2.97;0.90;;;26.30;99.90;;;;;;4923141;29;20533;-83
2022/09/16 09:37:23;;;;;;;3.37;1.00;;;25.80;99.90;;;;;;4939611;29;20453;-82
2022/09/16 09:40:03;;;;;;;3.77;0.90;;;26.00;99.90;;;;;;4931154;29;21001;-83
2022/09/16 09:42:34;;;;;;;4.50;1.10;;;27.40;99.90;;;;;;4931885;29;20999;-83
2022/09/16 09:45:37;;;;;;;3.53;0.80;;;28.10;99.90;;;;;;4936758;29;20511;-83
2022/09/16 09:48:43;;;;;;;5.03;1.00;;;29.00;99.90;;;;;;4939343;29;20445;-84
2022/09/16 09:52:09;;;;;;;;;;;;;;;;;;;;;
2022/09/16 09:54:43;;;;;;;3.30;0.80;;;28.30;99.90;;;;;;4931916;29;20533;-81
2022/09/16 09:57:39;;;;;;;2.70;1.20;;;28.50;99.90;;;;;;4942125;29;21114;-81
2022/09/16 10:00:54;;;;;;;4.90;1.20;;;29.10;99.90;;;;;;4940255;29;20572;-81
2022/09/16 10:03:27;;;;;;;;;;;;;;;;;;;;;
2022/09/16 10:05:57;;;;;;;2.43;1.07;;;32.00;99.90;;;;;;4941116;29;21035;-82
2022/09/16 10:08:41;;;;;;;5.33;1.00;;;32.50;99.90;;;;;;4942199;28;20437;-83
2022/09/16 10:11:32;;;;;;;2.60;0.80;;;33.10;99.90;;;;;;4938989;29;20444;-83
2022/09/16 10:14:42;;;;;;;3.70;1.20;;;33.70;99.90;;;;;;4941141;29;20445;-82
2022/09/16 10:17:16;;;;;;;3.33;0.80;;;33.30;96.70;;;;;;4943739;29;20508;-82
2022/09/16 10:20:00;;;;;;;2.57;0.80;;;32.80;92.00;;;;;;4942244;29;20436;-82
2022/09/16 10:22:48;;;;;;;;;;;;;;;;;;;;;
2022/09/16 10:25:50;;;;;;;3.27;1.00;;;32.80;82.30;;;;;;4937365;29;20557;-82
2022/09/16 10:31:58;;;;;;;4.10;0.90;;;29.40;59.20;;;;;;4938002;29;20428;-83
2022/09/16 10:34:47;;;;;;;2.07;0.87;;;30.80;66.70;;;;;;4936539;29;20489;-83
2022/09/16 10:37:26;;;;;;;1.97;0.80;;;32.00;66.10;;;;;;4936622;29;20533;-83
2022/09/16 10:40:04;;;;;;;3.17;0.87;;;32.80;66.70;;;;;;4932891;29;20436;-84
2022/09/16 10:42:33;;;;;;;2.77;0.77;;;33.60;62.70;;;;;;4917119;29;20451;-84
2022/09/16 10:45:15;;;;;;;3.73;1.03;;;33.90;57.60;;;;;;4936292;29;20956;-82
2022/09/16 10:47:50;;;;;;;4.10;1.60;;;34.70;55.50;;;;;;4918033;29;20449;-84
2022/09/16 10:50:22;;;;;;;2.80;0.70;;;35.00;51.20;;;;;;4933163;29;20897;-81
2022/09/16 10:52:56;;;;;;;3.67;1.00;;;33.10;43.20;;;;;;4939043;29;20453;-81
2022/09/16 10:55:29;;;;;;;2.70;1.00;;;31.30;39.60;;;;;;4940810;29;20441;-83
2022/09/16 10:58:17;;;;;;;4.27;1.10;;;29.30;35.90;;;;;;4936398;29;20426;-83
2022/09/16 11:01:31;;;;;;;;;;;;;;;;;;;;;
2022/09/16 11:04:28;;;;;;;5.37;0.90;;;25.70;33.80;;;;;;4937791;29;20527;-82
2022/09/16 11:07:30;;;;;;;2.20;0.90;;;24.40;35.20;;;;;;4928652;29;20802;-83
2022/09/16 11:10:30;;;;;;;3.20;1.30;;;23.70;37.80;;;;;;4936765;29;20536;-83
2022/09/16 11:13:11;;;;;;;3.30;1.00;;;23.30;40.70;;;;;;4936854;29;20449;-82
2022/09/16 11:16:14;;;;;;;3.73;1.27;;;22.90;41.90;;;;;;4933718;29;20479;-82
2022/09/16 11:18:45;;;;;;;3.03;1.10;;;22.40;43.70;;;;;;4918079;29;20440;-83
2022/09/16 11:21:17;;;;;;;2.97;1.00;;;22.50;46.80;;;;;;4930996;29;20483;-83
2022/09/16 11:23:57;;;;;;;2.90;0.97;;;24.40;56.60;;;;;;4936539;29;20436;-84
2022/09/16 11:27:04;;;;;;;3.40;1.20;;;26.80;66.00;;;;;;4937839;29;20452;-83
2022/09/16 11:30:17;;;;;;;3.27;1.00;;;27.80;65.40;;;;;;4942293;29;20555;-84
2022/09/16 11:36:43;;;;;;;2.00;0.80;;;30.00;66.40;;;;;;4929458;29;20520;-83
2022/09/16 11:39:56;;;;;;;3.60;1.00;;;28.60;57.70;;;;;;4938789;29;20450;-84
2022/09/16 11:42:42;;;;;;;13.70;1.50;;;27.20;53.00;;;;;;4977609;28;20469;-83
2022/09/16 11:45:43;;;;;;;3.80;1.10;;;25.30;50.70;;;;;;4944696;29;20453;-83
2022/09/16 11:49:07;;;;;;;3.40;0.90;;;23.80;49.20;;;;;;4934328;29;20991;-83
2022/09/16 11:51:51;;;;;;;6.47;1.20;;;22.30;48.10;;;;;;4912901;29;20450;-86
2022/09/16 11:54:26;;;;;;;2.67;0.80;;;21.20;50.70;;;;;;4922270;29;20501;-84
2022/09/16 11:57:26;;;;;;;3.53;1.23;;;20.40;51.60;;;;;;4929883;29;20440;-83
2022/09/16 12:00:15;;;;;;;4.27;1.10;;;19.70;54.60;;;;;;4936781;29;20495;-84
2022/09/16 12:03:06;;;;;;;2.13;0.90;;;19.10;62.20;;;;;;4941682;29;20417;-84
2022/09/16 12:13:31;;;;;;;9.43;0.90;;;18.00;99.90;;;;;;4915962;29;20443;-85
2022/09/16 12:19:31;;;;;;;1.70;0.90;;;17.30;99.90;;;;;;4929915;29;20451;-83
2022/09/16 12:22:16;;;;;;;1.73;0.70;;;17.10;99.90;;;;;;4943774;29;20445;-85
2022/09/16 12:25:07;;;;;;;2.10;0.70;;;16.80;99.90;;;;;;4945764;29;20505;-85
2022/09/16 12:28:10;;;;;;;1.90;0.80;;;16.70;99.90;;;;;;4942380;29;20505;-84
2022/09/16 12:30:45;;;;;;;3.40;0.97;;;16.60;99.90;;;;;;4970880;28;20477;-88
2022/09/16 12:33:33;;;;;;;;;;;;;;;;;;;;;
2022/09/16 12:36:30;;;;;;;3.10;0.80;;;16.30;99.90;;;;;;4938428;29;20546;-86
2022/09/16 12:39:19;;;;;;;1.83;0.90;;;16.20;99.90;;;;;;4935200;29;20437;-83
2022/09/16 12:42:45;;;;;;;2.40;1.13;;;16.20;99.90;;;;;;4940279;29;20440;-84
2022/09/16 12:45:42;;;;;;;4.40;0.70;;;16.20;99.90;;;;;;4923330;29;20485;-84
2022/09/16 12:48:26;;;;;;;4.17;1.57;;;16.20;99.90;;;;;;4941865;29;20485;-86
2022/09/16 12:55:13;;;;;;;;;;;;;;;;;;;;;
2022/09/16 12:58:20;;;;;;;1.90;0.80;;;16.40;99.90;;;;;;4924523;29;20927;-86
2022/09/16 13:04:54;;;;;;;4.60;1.17;;;16.50;1.00;;;;;;4936456;29;20869;-87
2022/09/16 13:07:49;;;;;;;24.33;19.70;;;16.90;99.90;;;;;;4939469;29;20437;-86
2022/09/16 13:10:44;;;;;;;26.83;19.30;;;17.40;99.90;;;;;;4931407;29;20472;-87
2022/09/16 13:13:37;;;;;;;4.53;2.70;;;18.30;99.90;;;;;;4926614;29;21269;-86
2022/09/16 13:59:29;;;;;;;;;;;;;;;;;;;;;
2022/09/16 14:02:29;;;;;;;;;;;;;;;;;;;;;
2022/09/16 14:05:04;;;;;;;5.43;2.00;;;18.40;99.90;;;;;;4997843;28;20503;-84
2022/09/16 14:07:58;;;;;;;4.67;3.17;;;18.10;99.90;;;;;;4967893;28;20412;-85
2022/09/16 14:10:57;;;;;;;5.03;4.47;;;17.90;99.90;;;;;;4957407;28;20837;-85
2022/09/16 14:14:04;;;;;;;6.13;4.60;;;17.90;99.90;;;;;;4984765;28;20502;-84
2022/09/16 14:16:53;;;;;;;8.37;5.90;;;18.00;99.90;;;;;;4997973;28;20925;-85
2022/09/16 14:19:49;;;;;;;7.10;3.83;;;18.20;99.90;;;;;;5007536;28;20467;-85
2022/09/16 14:25:49;;;;;;;3.23;2.03;;;18.30;99.90;;;;;;4968976;28;20436;-84
2022/09/16 14:28:27;;;;;;;3.33;2.33;;;18.20;99.90;;;;;;4992594;28;20523;-83
2022/09/16 14:31:44;;;;;;;8.77;2.43;;;18.20;99.90;;;;;;4985491;28;20472;-85
2022/09/16 14:40:45;;;;;;;1.87;1.37;;;18.00;99.90;;;;;;4976274;28;20500;-86
2022/09/16 14:47:40;;;;;;;4.57;1.00;;;17.60;99.90;;;;;;4953232;28;20456;-86
2022/09/16 14:51:17;;;;;;;2.27;1.20;;;17.30;99.90;;;;;;4993694;28;20467;-86
2022/09/16 14:54:49;;;;;;;;;;;;;;;;;;;;;
2022/09/16 14:57:46;;;;;;;4.10;1.93;;;16.70;99.90;;;;;;4912603;29;20454;-87
2022/09/16 15:04:37;;;;;;;3.67;1.93;;;16.10;1.00;;;;;;4881503;29;20471;-85
2022/09/16 15:08:03;;;;;;;2.70;1.20;;;15.90;1.00;;;;;;4926251;28;20435;-86
2022/09/16 15:11:06;;;;;;;3.73;3.00;;;15.60;1.00;;;;;;4895601;29;20571;-85
2022/09/16 15:14:08;;;;;;;2.97;1.20;;;15.50;1.00;;;;;;4893952;29;20969;-86
2022/09/16 15:17:30;;;;;;;6.30;1.60;;;15.50;1.00;;;;;;4879086;29;20434;-86
2022/09/16 15:20:46;;;;;;;3.93;1.40;;;15.70;1.00;;;;;;4965554;28;20445;-87
2022/09/16 15:23:39;;;;;;;;;;;;;;;;;;;;;
2022/09/16 15:26:33;;;;;;;4.00;1.43;;;16.20;1.00;;;;;;4992267;28;20893;-86
2022/09/16 15:29:26;;;;;;;3.20;1.37;;;16.40;1.00;;;;;;4992847;28;20988;-87
2022/09/16 15:32:04;;;;;;;4.67;2.13;;;16.60;99.90;;;;;;4980152;28;20461;-86
2022/09/16 15:34:33;;;;;;;2.90;1.07;;;16.80;99.90;;;;;;4997966;28;20520;-86
2022/09/16 15:40:41;;;;;;;3.10;1.10;;;17.20;99.90;;;;;;4929037;28;20425;-86
2022/09/16 15:43:15;;;;;;;3.67;0.93;;;17.20;99.90;;;;;;4959863;28;20446;-86
2022/09/16 15:46:09;;;;;;;2.10;1.00;;;17.10;99.90;;;;;;4993141;28;20452;-87
2022/09/16 15:52:02;;;;;;;;;;;;;;;;;;;;;
2022/09/16 15:55:02;;;;;;;2.40;1.30;;;16.90;99.90;;;;;;4985883;28;20445;-87
2022/09/16 15:57:39;;;;;;;2.90;0.90;;;16.90;99.90;;;;;;4976753;28;20531;-86
2022/09/16 16:00:21;;;;;;;;;;;;;;;;;;;;;
2022/09/16 16:03:21;;;;;;;4.83;1.77;;;16.70;99.90;;;;;;4986148;28;20440;-88
2022/09/16 16:05:51;;;;;;;2.77;1.97;;;16.70;99.90;;;;;;4990298;28;20458;-87
2022/09/16 16:08:40;;;;;;;5.60;2.20;;;16.70;99.90;;;;;;4978492;28;20792;-86
2022/09/16 16:11:27;;;;;;;2.90;2.57;;;16.60;99.90;;;;;;4965984;28;20859;-86
2022/09/16 16:14:34;;;;;;;;;;;;;;;;;;;;;
2022/09/16 16:17:18;;;;;;;3.30;1.97;;;16.50;99.90;;;;;;4996566;28;20413;-86
2022/09/16 16:19:48;;;;;;;2.60;1.37;;;16.40;1.00;;;;;;4969121;28;20823;-86
2022/09/16 16:22:25;;;;;;;4.77;1.60;;;16.40;1.00;;;;;;4992059;28;20411;-86
2022/09/16 16:38:47;;;;;;;3.97;2.60;;;16.00;1.00;;;;;;4858953;29;20432;-86
2022/09/16 16:45:26;;;;;;;;;;;;;;;;;;;;;
2022/09/16 16:48:21;;;;;;;2.93;1.30;;;15.80;1.00;;;;;;4991143;28;20552;-85
2022/09/16 16:51:22;;;;;;;4.43;1.57;;;15.70;1.00;;;;;;4984626;28;20524;-85
2022/09/16 16:54:08;;;;;;;4.63;1.17;;;15.60;1.00;;;;;;4897774;29;20430;-86
2022/09/16 16:57:12;;;;;;;2.27;1.40;;;15.50;1.00;;;;;;4884834;29;20425;-85
2022/09/16 17:00:04;;;;;;;2.47;1.50;;;15.40;1.00;;;;;;4890396;29;20549;-85
2022/09/16 17:06:35;;;;;;;9.37;1.70;;;15.30;1.00;;;;;;4893462;29;20433;-87
2022/09/16 17:12:16;;;;;;;8.03;2.20;;;15.00;62.60;;;;;;4986670;28;20432;-87
2022/09/16 17:15:14;;;;;;;5.20;1.50;;;14.80;99.90;;;;;;4984109;28;20462;-87
2022/09/16 17:17:51;;;;;;;7.70;2.67;;;14.70;99.90;;;;;;4980921;28;20477;-86
2022/09/16 17:20:18;;;;;;;2.20;1.40;;;14.70;99.90;;;;;;4994672;28;20408;-87
2022/09/16 17:22:56;;;;;;;14.03;10.40;;;14.60;1.00;;;;;;4979574;28;20454;-87
2022/09/16 17:25:27;;;;;;;14.27;8.37;;;14.50;1.00;;;;;;4976367;28;20475;-87
2022/09/16 17:28:11;;;;;;;21.10;17.97;;;14.40;1.00;;;;;;4972880;28;20453;-86
2022/09/16 17:31:31;;;;;;;;;;;;;;;;;;;;;
2022/09/16 17:43:11;;;;;;;6.03;1.90;;;14.10;99.90;;;;;;4980089;28;20439;-86
2022/09/16 17:49:27;;;;;;;5.77;2.43;;;13.90;1.00;;;;;;4980420;28;20461;-87
2022/09/16 17:56:31;;;;;;;7.33;2.07;;;13.80;1.00;;;;;;4957972;28;20518;-86
2022/09/16 17:59:27;;;;;;;3.70;1.63;;;13.70;1.00;;;;;;4958694;28;20439;-86
2022/09/16 18:02:27;;;;;;;;;;;;;;;;;;;;;
2022/09/16 18:09:17;;;;;;;;;;;;;;;;;;;;;
2022/09/16 18:22:04;;;;;;;10.20;2.83;;;13.30;99.90;;;;;;4942327;28;20801;-86
2022/09/16 18:27:39;;;;;;;7.30;2.40;;;13.20;99.90;;;;;;5820047;22;20509;-86
2022/09/16 18:36:45;;;;;;;5.47;2.60;;;13.10;99.90;;;;;;4858519;29;20452;-86
2022/09/16 18:39:21;;;;;;;8.87;2.27;;;13.10;99.90;;;;;;4902246;29;20522;-86
2022/09/16 18:42:07;;;;;;;6.10;2.70;;;13.10;99.90;;;;;;4889235;29;20455;-86
2022/09/16 18:44:52;;;;;;;3.20;2.23;;;13.00;46.20;;;;;;4900507;29;20462;-85
2022/09/16 18:56:33;;;;;;;5.43;1.93;;;13.00;99.90;;;;;;4877327;29;20573;-86
2022/09/16 19:05:52;;;;;;;4.50;2.47;;;12.80;99.90;;;;;;4895668;29;20443;-85
2022/09/16 19:08:20;;;;;;;13.47;4.10;;;12.80;27.00;;;;;;4959351;28;20422;-85
2022/09/16 19:10:46;;;;;;;4.57;2.13;;;12.70;91.50;;;;;;4959321;28;20483;-84
2022/09/16 20:42:15;;;;;;;7.90;5.20;;;11.60;1.00;;;;;;1384919;26;21018;-86
2022/09/16 20:44:41;;;;;;;43.33;3.97;;;11.60;1.00;;;;;;4985651;28;20518;-85
2022/09/16 20:47:08;;;;;;;8.13;2.90;;;11.50;1.00;;;;;;4991329;28;20442;-85
2022/09/16 20:49:40;;;;;;;5.30;2.30;;;11.50;1.00;;;;;;5009493;28;20211;-85
2022/09/16 20:52:12;;;;;;;9.77;3.13;;;11.50;1.00;;;;;;5008331;28;20468;-86
2022/09/16 20:54:42;;;;;;;9.83;4.87;;;11.50;1.00;;;;;;4987386;28;20431;-86
2022/09/16 20:57:28;;;;;;;5.87;2.80;;;11.50;1.00;;;;;;4980308;28;20835;-86
2022/09/16 21:06:29;;;;;;;6.77;2.60;;;11.40;1.00;;;;;;4965949;28;20443;-86
2022/09/16 21:09:24;;;;;;;8.90;5.43;;;11.40;1.00;;;;;;4904515;29;20944;-87
2022/09/16 22:03:24;;;;;;;6.27;2.40;;;11.20;85.60;;;;;;4904104;29;20478;-86
2022/09/16 22:06:18;;;;;;;;;;;;;;;;;;;;;
2022/09/16 22:09:11;;;;;;;9.40;2.60;;;11.20;98.80;;;;;;4963984;28;20409;-86
2022/09/16 22:15:09;;;;;;;;;;;;;;;;;;;;;
2022/09/16 22:18:10;;;;;;;9.77;2.63;;;11.10;99.90;;;;;;4970876;28;20432;-86
2022/09/16 22:21:34;;;;;;;8.07;2.40;;;11.10;99.90;;;;;;4959041;28;20431;-86
2022/09/16 22:24:13;;;;;;;7.77;3.37;;;11.00;99.90;;;;;;4947449;28;20800;-86
2022/09/16 22:27:12;;;;;;;;;;;;;;;;;;;;;
2022/09/16 22:30:41;;;;;;;;;;;;;;;;;;;;;
2022/09/16 22:33:31;;;;;;;7.20;2.30;;;11.00;99.90;;;;;;4898440;28;20439;-86
2022/09/16 22:35:56;;;;;;;6.63;2.80;;;11.00;99.90;;;;;;4975427;28;20847;-86
2022/09/16 22:38:36;;;;;;;6.50;2.70;;;11.00;99.90;;;;;;4974091;28;20467;-87
2022/09/16 22:44:21;;;;;;;5.23;2.10;;;10.90;99.90;;;;;;4974706;28;20441;-86
2022/09/16 22:47:16;;;;;;;6.27;2.73;;;10.90;99.90;;;;;;4972011;28;20454;-86
2022/09/16 22:50:33;;;;;;;9.03;2.73;;;10.90;99.90;;;;;;4943930;29;20471;-86
2022/09/16 22:53:50;;;;;;;11.27;2.87;;;10.90;99.90;;;;;;4980772;28;20456;-86
2022/09/16 22:56:46;;;;;;;6.57;3.40;;;10.90;99.90;;;;;;4965262;28;20512;-86
2022/09/16 22:59:35;;;;;;;9.73;3.60;;;10.80;99.90;;;;;;4971833;28;20522;-86
2022/09/16 23:02:44;;;;;;;6.80;3.43;;;10.80;99.90;;;;;;4939949;28;20448;-86
2022/09/16 23:05:36;;;;;;;9.10;5.13;;;10.80;99.90;;;;;;4961712;28;20901;-86
2022/09/16 23:08:07;;;;;;;8.83;2.47;;;10.80;99.90;;;;;;4943688;28;20944;-86
2022/09/16 23:11:09;;;;;;;4.07;2.17;;;10.80;99.90;;;;;;4954884;28;20507;-86
2022/09/16 23:16:47;;;;;;;13.00;3.00;;;10.80;1.00;;;;;;4962073;28;20429;-86
2022/09/16 23:19:22;;;;;;;11.27;2.50;;;10.80;1.00;;;;;;4969638;28;20439;-86
2022/09/16 23:21:59;;;;;;;9.03;2.70;;;10.80;1.00;;;;;;4949967;28;20439;-86
2022/09/16 23:24:45;;;;;;;5.17;2.67;;;10.80;1.00;;;;;;4969766;28;20465;-86
2022/09/16 23:27:20;;;;;;;10.23;3.50;;;10.80;1.00;;;;;;4955642;28;20443;-85
2022/09/16 23:30:03;;;;;;;7.83;2.63;;;10.80;1.00;;;;;;4956720;28;20474;-86
2022/09/16 23:32:31;;;;;;;6.53;3.10;;;10.80;1.00;;;;;;4957876;29;20416;-87
2022/09/16 23:35:53;;;;;;;;;;;;;;;;;;;;;
2022/09/16 23:45:15;;;;;;;9.50;2.90;;;10.90;1.00;;;;;;4968375;28;20452;-86
2022/09/16 23:47:47;;;;;;;9.30;3.10;;;10.90;1.00;;;;;;4958210;28;20531;-86
2022/09/16 23:51:01;;;;;;;5.10;2.60;;;11.00;1.00;;;;;;4969364;28;20467;-86
2022/09/16 23:53:55;;;;;;;7.40;2.87;;;11.00;1.00;;;;;;4955598;28;20439;-86
2022/09/16 23:56:20;;;;;;;12.17;3.27;;;11.00;1.00;;;;;;4975628;28;20479;-86
2022/09/16 23:59:38;;;;;;;10.60;3.07;;;11.10;1.00;;;;;;4968432;28;20443;-86
